createdAt,value
2023-12-11T00:04:44.128Z,103073.72
2023-12-11T00:10:08.366Z,103065.84
2023-12-11T00:15:12.123Z,103073.72
2023-12-11T00:20:49.964Z,103076.63
2023-12-11T00:25:52.597Z,103088.53
2023-12-11T00:30:55.844Z,103099.75
2023-12-11T00:35:58.475Z,103098.16
2023-12-11T00:41:01.186Z,103109.47
2023-12-11T00:46:04.233Z,103152.97
2023-12-11T00:51:07.090Z,103128.56
2023-12-11T00:56:09.970Z,103129.72
2023-12-11T01:01:12.922Z,103143.72
2023-12-11T01:06:15.823Z,103129.75
2023-12-11T01:11:18.456Z,103123.44
2023-12-11T01:16:21.405Z,103141.16
2023-12-11T01:21:24.198Z,103113.34
2023-12-11T01:26:26.971Z,103123.00
2023-12-11T01:31:29.599Z,103122.81
2023-12-11T01:36:32.285Z,103112.25
2023-12-11T01:41:35.077Z,103118.38
2023-12-11T01:46:37.750Z,103113.25
2023-12-11T01:51:40.516Z,103122.06
2023-12-11T01:56:43.933Z,103112.56
2023-12-11T02:01:46.966Z,103099.69
2023-12-11T02:06:52.182Z,103107.63
2023-12-11T02:11:57.080Z,103112.75
2023-12-11T02:17:00.469Z,103120.84
2023-12-11T02:22:03.427Z,103119.00
2023-12-11T02:27:06.325Z,103119.06
2023-12-11T02:32:09.046Z,103126.25
2023-12-11T02:37:11.826Z,103133.22
2023-12-11T02:42:14.661Z,103137.69
2023-12-11T02:47:17.316Z,103140.19
2023-12-11T02:52:20.050Z,103137.50
2023-12-11T02:57:22.812Z,103170.63
2023-12-11T03:02:25.545Z,103182.09
2023-12-11T03:07:28.603Z,103189.06
2023-12-11T03:12:31.534Z,103183.91
2023-12-11T03:17:34.277Z,103190.97
2023-12-11T03:22:37.014Z,103197.09
2023-12-11T03:27:39.703Z,103186.63
2023-12-11T03:32:42.541Z,103194.41
2023-12-11T03:37:45.253Z,103210.88
2023-12-11T03:42:48.042Z,103215.28
2023-12-11T03:47:50.985Z,103216.22
2023-12-11T03:52:53.757Z,103227.56
2023-12-11T03:57:56.610Z,103223.34
2023-12-11T04:02:59.391Z,103209.47
2023-12-11T04:08:02.098Z,103199.09
2023-12-11T04:13:04.792Z,103220.50
2023-12-11T04:18:07.527Z,103245.81
2023-12-11T04:23:10.370Z,103256.41
2023-12-11T04:28:13.125Z,103249.59
2023-12-11T04:33:15.871Z,103245.06
2023-12-11T04:38:18.620Z,103223.44
2023-12-11T04:43:21.364Z,103183.53
2023-12-11T04:48:24.143Z,103196.50
2023-12-11T04:53:26.888Z,103217.34
2023-12-11T04:58:29.622Z,103222.50
2023-12-11T05:03:32.427Z,103205.25
2023-12-11T05:08:35.140Z,103193.81
2023-12-11T05:13:37.822Z,103179.91
2023-12-11T05:18:40.785Z,103190.13
2023-12-11T05:23:43.581Z,103203.31
2023-12-11T05:28:46.267Z,103221.53
2023-12-11T05:33:49.169Z,103268.31
2023-12-11T05:38:52.180Z,103266.66
2023-12-11T05:43:54.972Z,103267.31
2023-12-11T05:48:57.683Z,103242.25
2023-12-11T05:54:00.464Z,103246.03
2023-12-11T05:59:03.662Z,103250.31
2023-12-11T06:04:06.455Z,103236.34
2023-12-11T06:09:09.250Z,103260.59
2023-12-11T06:14:12.064Z,103242.31
2023-12-11T06:19:14.967Z,103233.56
2023-12-11T06:24:17.982Z,103257.72
2023-12-11T06:29:20.671Z,103236.44
2023-12-11T06:34:23.538Z,103238.72
2023-12-11T06:39:26.960Z,103258.13
2023-12-11T06:44:29.804Z,103232.34
2023-12-11T06:49:33.519Z,103223.75
2023-12-11T06:54:36.332Z,103208.72
2023-12-11T06:59:39.369Z,103198.03
2023-12-11T07:04:43.555Z,103202.59
2023-12-11T07:09:47.872Z,103215.97
2023-12-11T07:14:51.059Z,103219.72
2023-12-11T07:19:53.909Z,103224.16
2023-12-11T07:24:56.742Z,103222.38
2023-12-11T07:29:59.533Z,103223.91
2023-12-11T07:35:02.524Z,103205.53
2023-12-11T07:40:07.615Z,103215.81
2023-12-11T07:45:11.025Z,103226.44
2023-12-11T07:50:13.818Z,103222.16
2023-12-11T07:55:16.739Z,103221.13
2023-12-11T08:00:21.062Z,103240.34
2023-12-11T08:05:23.811Z,103228.75
2023-12-11T08:10:26.880Z,103231.19
2023-12-11T08:15:29.687Z,103212.22
2023-12-11T08:20:32.395Z,103198.44
2023-12-11T08:25:35.096Z,103185.78
2023-12-11T08:30:37.810Z,103181.19
2023-12-11T08:35:40.627Z,103173.38
2023-12-11T08:40:44.528Z,103164.53
2023-12-11T08:45:47.324Z,103155.78
2023-12-11T08:50:53.862Z,103138.53
2023-12-11T08:55:56.693Z,103153.44
2023-12-11T09:00:59.791Z,103147.84
2023-12-11T09:06:03.355Z,103148.97
2023-12-11T09:11:06.289Z,103164.91
2023-12-11T09:16:09.388Z,103179.47
2023-12-11T09:21:12.166Z,103159.81
2023-12-11T09:26:14.915Z,103165.56
2023-12-11T09:31:20.426Z,103190.81
2023-12-11T09:36:23.268Z,103193.63
2023-12-11T09:41:30.803Z,103195.09
2023-12-11T09:46:42.845Z,103174.72
2023-12-11T09:51:45.771Z,103191.22
2023-12-11T09:56:49.681Z,103174.41
2023-12-11T10:01:53.114Z,103154.53
2023-12-11T10:06:56.097Z,103151.50
2023-12-11T10:12:04.456Z,103149.84
2023-12-11T10:17:19.098Z,103145.72
2023-12-11T10:22:32.592Z,103154.34
2023-12-11T10:27:35.312Z,103124.50
2023-12-11T10:32:38.333Z,103154.41
2023-12-11T10:37:43.726Z,103156.72
2023-12-11T10:42:57.793Z,103138.72
2023-12-11T10:48:01.719Z,103139.41
2023-12-11T10:53:07.482Z,103139.50
2023-12-11T10:58:14.147Z,103144.78
2023-12-11T11:03:18.321Z,103145.69
2023-12-11T11:08:37.265Z,103161.06
2023-12-11T11:14:11.118Z,103147.88
2023-12-11T11:19:13.872Z,103154.25
2023-12-11T11:24:27.673Z,103166.63
2023-12-11T11:29:50.714Z,103170.31
2023-12-11T11:34:53.645Z,103173.09
2023-12-11T11:40:07.251Z,103172.16
2023-12-11T11:45:11.380Z,103179.25
2023-12-11T11:50:20.768Z,103171.34
2023-12-11T11:55:29.860Z,103187.13
2023-12-11T12:00:37.475Z,103171.88
2023-12-11T12:05:56.903Z,103183.97
2023-12-11T12:11:01.094Z,103208.19
2023-12-11T12:16:04.521Z,103194.13
2023-12-11T12:21:09.725Z,103225.34
2023-12-11T12:26:13.379Z,103190.50
2023-12-11T12:31:20.515Z,103198.75
2023-12-11T12:36:26.619Z,103189.09
2023-12-11T12:41:31.192Z,103199.41
2023-12-11T12:46:41.956Z,103214.25
2023-12-11T12:51:49.973Z,103231.16
2023-12-11T12:57:45.427Z,103224.75
2023-12-11T13:02:50.930Z,103241.63
2023-12-11T13:08:00.003Z,103242.53
2023-12-11T13:13:13.101Z,103237.38
2023-12-11T13:18:17.042Z,103212.13
2023-12-11T13:23:20.088Z,103232.38
2023-12-11T13:28:22.969Z,103226.16
2023-12-11T13:33:29.340Z,103268.41
2023-12-11T13:38:32.579Z,103223.66
2023-12-11T13:43:36.362Z,103226.16
2023-12-11T13:48:40.342Z,103205.28
2023-12-11T13:53:52.717Z,103239.19
2023-12-11T14:00:18.557Z,103220.09
2023-12-11T14:12:12.347Z,103225.66
2023-12-11T14:24:37.035Z,103239.84
2023-12-11T14:29:39.848Z,103226.63
2023-12-11T14:34:43.968Z,103260.84
2023-12-11T14:39:51.488Z,103256.47
2023-12-11T14:44:55.291Z,103249.66
2023-12-11T14:50:01.934Z,103249.28
2023-12-11T14:55:08.556Z,103261.66
2023-12-11T15:00:12.664Z,103269.34
2023-12-11T15:05:17.021Z,103264.00
2023-12-11T15:10:20.387Z,103243.00
2023-12-11T15:15:23.369Z,103257.75
2023-12-11T15:20:26.311Z,103302.34
2023-12-11T15:25:29.294Z,103255.91
2023-12-11T15:37:53.759Z,103250.72
2023-12-11T15:42:57.588Z,103278.47
2023-12-11T15:48:03.040Z,103260.28
2023-12-11T15:53:16.999Z,103269.13
2023-12-11T16:04:51.149Z,103267.78
2023-12-11T16:09:54.449Z,103265.25
2023-12-11T16:14:58.015Z,103265.88
2023-12-11T16:20:01.323Z,103268.19
2023-12-11T16:25:08.137Z,103260.22
2023-12-11T16:30:11.665Z,103268.94
2023-12-11T16:35:14.864Z,103270.84
2023-12-11T16:40:18.954Z,103257.00
2023-12-11T16:46:26.642Z,103262.84
2023-12-11T16:52:03.728Z,103275.06
2023-12-11T16:57:06.668Z,103263.69
2023-12-11T17:02:10.398Z,103272.66
2023-12-11T17:07:15.985Z,103265.44
2023-12-11T17:12:18.857Z,103245.44
2023-12-11T17:17:21.758Z,103236.69
2023-12-11T17:22:24.605Z,103238.63
2023-12-11T17:27:27.622Z,103241.72
2023-12-11T17:32:30.976Z,103228.56
2023-12-11T17:37:33.864Z,103241.38
2023-12-11T17:42:36.593Z,103249.16
2023-12-11T17:47:39.381Z,103236.22
2023-12-11T17:52:42.235Z,103238.97
2023-12-11T17:57:45.125Z,103224.25
2023-12-11T18:02:48.498Z,103209.44
2023-12-11T18:07:51.295Z,103198.06
2023-12-11T18:12:54.136Z,103202.38
2023-12-11T18:17:57.156Z,103208.97
2023-12-11T18:23:02.178Z,103226.84
2023-12-11T18:28:05.010Z,103235.97
2023-12-11T18:33:07.881Z,103204.56
2023-12-11T18:38:10.700Z,103221.47
2023-12-11T18:43:13.482Z,103231.41
2023-12-11T18:48:16.400Z,103218.47
2023-12-11T18:53:19.442Z,103211.00
2023-12-11T18:58:22.464Z,103212.56
2023-12-11T19:03:25.313Z,103199.22
2023-12-11T19:08:28.088Z,103210.06
2023-12-11T19:13:30.838Z,103197.69
2023-12-11T19:18:33.720Z,103219.97
2023-12-11T19:23:37.387Z,103202.25
2023-12-11T19:28:40.122Z,103222.56
2023-12-11T19:33:42.829Z,103228.56
2023-12-11T19:38:46.389Z,103251.47
2023-12-11T19:43:49.247Z,103242.19
2023-12-11T19:48:52.137Z,103225.31
2023-12-11T19:53:54.945Z,103228.72
2023-12-11T19:58:57.684Z,103224.75
2023-12-11T20:04:00.674Z,103224.56
2023-12-11T20:09:03.536Z,103208.25
2023-12-11T20:14:06.207Z,103213.50
2023-12-11T20:19:09.970Z,103235.16
2023-12-11T20:24:15.242Z,103231.91
2023-12-11T20:29:18.601Z,103267.88
2023-12-11T20:34:21.347Z,103230.50
2023-12-11T20:39:24.137Z,103239.03
2023-12-11T20:44:26.871Z,103227.81
2023-12-11T20:49:29.761Z,103195.94
2023-12-11T20:54:32.998Z,103258.59
2023-12-11T20:59:35.778Z,103241.22
2023-12-11T21:04:38.539Z,103230.31
2023-12-11T21:09:43.890Z,103238.34
2023-12-11T21:14:46.684Z,103248.81
2023-12-11T21:19:49.365Z,103216.81
2023-12-11T21:24:52.134Z,103219.44
2023-12-11T21:29:54.889Z,103232.41
2023-12-11T21:34:57.684Z,103211.41
2023-12-11T21:40:00.540Z,103204.41
2023-12-11T21:45:03.299Z,103216.59
2023-12-11T21:50:06.746Z,103229.88
2023-12-11T21:55:09.791Z,103204.63
2023-12-11T22:00:12.960Z,103225.75
2023-12-11T22:05:15.853Z,103221.56
2023-12-11T22:10:19.386Z,103212.56
2023-12-11T22:15:22.038Z,103198.00
2023-12-11T22:20:25.262Z,103191.94
2023-12-11T22:25:27.959Z,103191.06
2023-12-11T22:30:30.807Z,103197.25
2023-12-11T22:35:33.448Z,103212.28
2023-12-11T22:40:37.429Z,103221.06
2023-12-11T22:45:40.112Z,103211.63
2023-12-11T22:50:43.004Z,103208.00
2023-12-11T22:55:45.746Z,103196.81
2023-12-11T23:00:48.604Z,103209.00
2023-12-11T23:05:51.392Z,103232.53
2023-12-11T23:10:54.949Z,103212.47
2023-12-11T23:15:58.254Z,103239.56
2023-12-11T23:21:00.987Z,103218.56
2023-12-11T23:26:05.685Z,103205.81
2023-12-11T23:31:09.552Z,103205.19
2023-12-11T23:36:13.140Z,103224.28
2023-12-11T23:41:15.958Z,103212.78
2023-12-11T23:46:18.982Z,103224.19
2023-12-11T23:51:21.786Z,103221.63
2023-12-11T23:56:24.578Z,103199.88
